CheckWX is a tool to help pilots better visualize weather data.  It is not intended as a substitute for an official pre-flight weather briefing.

05:18:55 UTC

KLKV METAR
Lake County Airport
Lakeview, Oregon, USA
Current

26 mins ago

KLKV 240453Z AUTO 18005KT 6SM RA BR OVC024 02/02 A3009 RMK AO2 SLP208 P0008 T00220017 FZRANO
Observed
Jan-24 @ 04:53 UTC
Wind
  • 180° at 5 KTS
Visibility
6 SM
Flight Rules
MVFR
Conditions
Rain, Mist
Cloud Levels
  • Overcast at 2,400' AGL
Temperature
C / 36°F
Dewpoint
C / 36°F
Humidity
100%
Altimeter
30.09" Hg
Pressure
1018.92 hPa
Current Rain
0.08"
Previous

52 mins ago

KLKV 240427Z AUTO 00000KT 6SM RA BR OVC028 02/01 A3007 RMK AO2 P0001 FZRANO
Observed
Jan-24 @ 04:27 UTC
Visibility
6 SM
Flight Rules
MVFR
Conditions
Rain, Mist
Cloud Levels
  • Overcast at 2,800' AGL
Temperature
C / 36°F
Dewpoint
C / 34°F
Humidity
93%
Altimeter
30.07" Hg
Pressure
1018.32 hPa
Current Rain
0.01"
Previous

1 hour ago

KLKV 240353Z AUTO 32003KT 10SM -RA OVC032 02/01 A3007 RMK AO2 SLP203 P0000 T00170011 FZRANO
Observed
Jan-24 @ 03:53 UTC
Wind
  • 320° at 3 KTS
Visibility
10 SM
Flight Rules
VFR
Conditions
Light Rain
Cloud Levels
  • Overcast at 3,200' AGL
Temperature
C / 36°F
Dewpoint
C / 34°F
Humidity
93%
Altimeter
30.07" Hg
Pressure
1018.32 hPa
Current Rain
0.01"